Time,TemperatureF,DewpointF,PressureIn,WindDirection,WindDirectionDegrees,WindSpeedMPH,WindSpeedGustMPH,Humidity,HourlyPrecipIn,Conditions,Clouds,dailyrainin,SoftwareType,DateUTC
2013-03-06 00:00:00,27.2,23.3,29.90,NE,50,4.0,5.0,85,0.00,,,0.01,Wunderground v.1.15,2013-03-06 05:00:00,
2013-03-06 00:01:00,27.2,23.3,29.90,ESE,119,4.0,5.0,85,0.00,,,0.00,Wunderground v.1.15,2013-03-06 05:01:00,
2013-03-06 00:02:00,27.2,23.3,29.90,East,98,4.0,5.0,85,0.00,,,0.00,Wunderground v.1.15,2013-03-06 05:02:00,
2013-03-06 00:03:00,27.2,23.3,29.90,North,10,4.0,5.0,85,0.00,,,0.00,Wunderground v.1.15,2013-03-06 05:03:00,
2013-03-06 00:08:00,27.2,23.3,29.89,West,261,4.0,5.0,85,0.00,,,0.00,Wunderground v.1.15,2013-03-06 05:08:00,
2013-03-06 00:11:00,27.2,23.3,29.90,North,8,4.0,11.0,85,0.00,,,0.00,Wunderground v.1.15,2013-03-06 05:11:00,
2013-03-06 00:15:00,27.1,23.2,29.90,North,10,4.0,11.0,85,0.00,,,0.00,Wunderground v.1.15,2013-03-06 05:15:00,
2013-03-06 00:17:00,27.1,23.2,29.90,North,3,4.0,11.0,85,0.00,,,0.00,Wunderground v.1.15,2013-03-06 05:17:00,
2013-03-06 00:19:00,27.1,23.2,29.90,NE,48,4.0,11.0,85,0.00,,,0.00,Wunderground v.1.15,2013-03-06 05:19:00,
2013-03-06 00:20:00,27.1,23.2,29.90,WNW,284,4.0,4.0,85,0.00,,,0.00,Wunderground v.1.15,2013-03-06 05:20:00,
2013-03-06 00:21:00,27.1,23.2,29.90,East,87,4.0,5.0,85,0.00,,,0.00,Wunderground v.1.15,2013-03-06 05:21:00,
2013-03-06 00:25:00,27.0,23.1,29.90,South,186,4.0,8.0,85,0.00,,,0.00,Wunderground v.1.15,2013-03-06 05:25:00,
2013-03-06 00:27:00,27.0,23.1,29.90,NNW,334,4.0,8.0,85,0.00,,,0.00,Wunderground v.1.15,2013-03-06 05:27:00,
2013-03-06 00:28:00,27.0,23.1,29.90,SW,216,4.0,8.0,85,0.00,,,0.00,Wunderground v.1.15,2013-03-06 05:28:00,
2013-03-06 00:31:00,27.0,23.1,29.90,SE,132,4.0,4.0,85,0.00,,,0.00,Wunderground v.1.15,2013-03-06 05:31:00,
2013-03-06 00:33:00,27.0,23.1,29.90,ESE,109,4.0,4.0,85,0.00,,,0.00,Wunderground v.1.15,2013-03-06 05:33:00,
2013-03-06 00:35:00,26.9,23.0,29.89,East,92,4.0,4.0,85,0.00,,,0.00,Wunderground v.1.15,2013-03-06 05:35:00,
2013-03-06 00:36:00,26.9,23.0,29.89,ENE,66,3.0,4.0,85,0.00,,,0.00,Wunderground v.1.15,2013-03-06 05:36:00,
2013-03-06 00:39:00,26.9,23.3,29.90,ENE,73,3.0,10.0,86,0.00,,,0.00,Wunderground v.1.15,2013-03-06 05:39:00,
2013-03-06 00:40:00,26.9,23.3,29.90,NE,45,3.0,3.0,86,0.00,,,0.00,Wunderground v.1.15,2013-03-06 05:40:00,
2013-03-06 00:42:00,26.8,23.2,29.89,NE,43,3.0,5.0,86,0.00,,,0.00,Wunderground v.1.15,2013-03-06 05:42:00,
2013-03-06 00:44:00,26.8,23.2,29.90,NE,48,4.0,6.0,86,0.00,,,0.00,Wunderground v.1.15,2013-03-06 05:44:00,
2013-03-06 00:45:00,26.8,23.2,29.90,NE,41,4.0,6.0,86,0.00,,,0.00,Wunderground v.1.15,2013-03-06 05:45:00,
2013-03-06 00:47:00,26.7,23.1,29.90,ENE,77,4.0,6.0,86,0.00,,,0.00,Wunderground v.1.15,2013-03-06 05:47:00,
2013-03-06 00:49:00,26.7,23.1,29.90,East,85,4.0,6.0,86,0.00,,,0.00,Wunderground v.1.15,2013-03-06 05:49:00,
2013-03-06 00:50:00,26.7,23.1,29.90,ESE,122,4.0,4.0,86,0.00,,,0.00,Wunderground v.1.15,2013-03-06 05:50:00,
2013-03-06 00:54:00,26.6,23.0,29.90,ESE,118,4.0,5.0,86,0.00,,,0.00,Wunderground v.1.15,2013-03-06 05:54:00,
2013-03-06 00:55:00,26.6,23.0,29.90,East,98,4.0,5.0,86,0.00,,,0.00,Wunderground v.1.15,2013-03-06 05:55:00,
2013-03-06 00:56:00,26.6,23.0,29.90,East,91,4.0,5.0,86,0.00,,,0.00,Wunderground v.1.15,2013-03-06 05:56:00,
2013-03-06 01:01:00,26.6,23.3,29.90,South,189,4.0,4.0,87,0.00,,,0.00,Wunderground v.1.15,2013-03-06 06:01:00,
2013-03-06 01:02:00,26.6,23.3,29.90,East,92,4.0,4.0,87,0.00,,,0.00,Wunderground v.1.15,2013-03-06 06:02:00,
2013-03-06 01:03:00,26.6,23.3,29.90,SSE,164,4.0,5.0,87,0.00,,,0.00,Wunderground v.1.15,2013-03-06 06:03:00,
2013-03-06 01:07:00,26.7,23.4,29.90,NNW,328,4.0,8.0,87,0.00,,,0.00,Wunderground v.1.15,2013-03-06 06:07:00,
2013-03-06 01:08:00,26.7,23.4,29.90,SW,223,4.0,8.0,87,0.00,,,0.00,Wunderground v.1.15,2013-03-06 06:08:00,
2013-03-06 01:10:00,26.7,23.4,29.90,ENE,71,4.0,4.0,87,0.00,,,0.00,Wunderground v.1.15,2013-03-06 06:10:00,
2013-03-06 01:12:00,26.8,23.4,29.90,East,94,4.0,4.0,87,0.00,,,0.00,Wunderground v.1.15,2013-03-06 06:12:00,
2013-03-06 01:13:00,26.8,23.4,29.90,ENE,69,4.0,4.0,87,0.00,,,0.00,Wunderground v.1.15,2013-03-06 06:13:00,
2013-03-06 01:15:00,26.8,23.4,29.90,NW,312,3.0,7.0,87,0.00,,,0.00,Wunderground v.1.15,2013-03-06 06:15:00,
2013-03-06 01:19:00,26.9,23.8,29.90,East,84,3.0,7.0,88,0.00,,,0.00,Wunderground v.1.15,2013-03-06 06:19:00,
2013-03-06 01:20:00,26.9,23.8,29.90,NNE,21,3.0,9.0,88,0.00,,,0.00,Wunderground v.1.15,2013-03-06 06:20:00,
2013-03-06 01:24:00,27.1,24.0,29.90,SE,142,4.0,9.0,88,0.00,,,0.00,Wunderground v.1.15,2013-03-06 06:24:00,
2013-03-06 01:25:00,27.1,24.0,29.90,North,353,4.0,9.0,88,0.00,,,0.00,Wunderground v.1.15,2013-03-06 06:25:00,
2013-03-06 01:26:00,27.1,24.0,29.90,SE,126,4.0,9.0,88,0.00,,,0.00,Wunderground v.1.15,2013-03-06 06:26:00,
2013-03-06 01:31:00,27.3,24.2,29.91,NNE,29,4.0,6.0,88,0.00,,,0.00,Wunderground v.1.15,2013-03-06 06:31:00,
2013-03-06 01:32:00,27.3,24.2,29.91,NE,45,4.0,6.0,88,0.00,,,0.00,Wunderground v.1.15,2013-03-06 06:32:00,
2013-03-06 01:35:00,27.4,24.3,29.91,East,80,4.0,6.0,88,0.00,,,0.00,Wunderground v.1.15,2013-03-06 06:35:00,
2013-03-06 01:37:00,27.4,24.3,29.91,West,274,4.0,7.0,88,0.00,,,0.00,Wunderground v.1.15,2013-03-06 06:37:00,
2013-03-06 01:39:00,27.5,24.4,29.91,WNW,296,4.0,7.0,88,0.00,,,0.00,Wunderground v.1.15,2013-03-06 06:39:00,
2013-03-06 01:40:00,27.5,24.4,29.91,NNW,341,4.0,7.0,88,0.00,,,0.00,Wunderground v.1.15,2013-03-06 06:40:00,
2013-03-06 01:42:00,27.5,24.4,29.91,North,358,5.0,7.0,88,0.00,,,0.00,Wunderground v.1.15,2013-03-06 06:42:00,
2013-03-06 01:45:00,27.6,24.5,29.91,ENE,76,5.0,7.0,88,0.00,,,0.00,Wunderground v.1.15,2013-03-06 06:45:00,
2013-03-06 01:46:00,27.7,24.6,29.91,NNW,346,5.0,7.0,88,0.00,,,0.00,Wunderground v.1.15,2013-03-06 06:46:00,
2013-03-06 01:50:00,27.8,24.7,29.91,SE,142,5.0,5.0,88,0.00,,,0.00,Wunderground v.1.15,2013-03-06 06:50:00,
2013-03-06 01:52:00,27.9,24.8,29.91,NNE,18,4.0,10.0,88,0.00,,,0.00,Wunderground v.1.15,2013-03-06 06:52:00,
2013-03-06 01:54:00,27.9,24.5,29.91,East,84,4.0,11.0,87,0.00,,,0.00,Wunderground v.1.15,2013-03-06 06:54:00,
2013-03-06 01:55:00,27.9,24.5,29.91,SE,128,4.0,11.0,87,0.00,,,0.00,Wunderground v.1.15,2013-03-06 06:55:00,
2013-03-06 01:59:00,28.0,24.6,29.91,ESE,119,5.0,11.0,87,0.00,,,0.00,Wunderground v.1.15,2013-03-06 06:59:00,
2013-03-06 02:00:00,28.0,24.6,29.91,NE,48,5.0,5.0,87,0.00,,,0.00,Wunderground v.1.15,2013-03-06 07:00:00,
2013-03-06 02:01:00,28.0,24.6,29.91,ENE,71,5.0,5.0,87,0.00,,,0.00,Wunderground v.1.15,2013-03-06 07:01:00,
2013-03-06 02:07:00,28.1,24.7,29.91,East,86,4.0,7.0,87,0.00,,,0.00,Wunderground v.1.15,2013-03-06 07:07:00,
2013-03-06 02:09:00,28.1,24.7,29.91,ENE,71,4.0,7.0,87,0.00,,,0.00,Wunderground v.1.15,2013-03-06 07:09:00,
2013-03-06 02:11:00,28.1,24.7,29.91,SSW,210,4.0,7.0,87,0.00,,,0.00,Wunderground v.1.15,2013-03-06 07:11:00,
2013-03-06 02:14:00,28.2,24.8,29.91,East,88,6.0,8.0,87,0.00,,,0.00,Wunderground v.1.15,2013-03-06 07:14:00,
2013-03-06 02:15:00,28.2,24.8,29.91,NE,39,6.0,8.0,87,0.00,,,0.00,Wunderground v.1.15,2013-03-06 07:15:00,
2013-03-06 02:16:00,28.3,24.9,29.91,NE,36,6.0,8.0,87,0.00,,,0.00,Wunderground v.1.15,2013-03-06 07:16:00,
2013-03-06 02:18:00,28.3,24.9,29.91,WNW,284,6.0,8.0,87,0.00,,,0.00,Wunderground v.1.15,2013-03-06 07:18:00,
2013-03-06 02:21:00,28.3,24.9,29.91,ENE,57,5.0,5.0,87,0.00,,,0.00,Wunderground v.1.15,2013-03-06 07:21:00,
2013-03-06 02:24:00,28.3,24.9,29.91,ENE,66,4.0,9.0,87,0.00,,,0.00,Wunderground v.1.15,2013-03-06 07:24:00,
2013-03-06 02:25:00,28.3,24.9,29.91,SW,230,4.0,9.0,87,0.00,,,0.00,Wunderground v.1.15,2013-03-06 07:25:00,
2013-03-06 02:28:00,28.3,24.9,29.91,ENE,66,4.0,9.0,87,0.00,,,0.00,Wunderground v.1.15,2013-03-06 07:28:00,
2013-03-06 02:29:00,28.3,24.9,29.91,ESE,102,4.0,9.0,87,0.00,,,0.00,Wunderground v.1.15,2013-03-06 07:29:00,
2013-03-06 02:32:00,28.3,24.9,29.92,East,91,5.0,6.0,87,0.00,,,0.00,Wunderground v.1.15,2013-03-06 07:32:00,
2013-03-06 02:35:00,28.3,24.9,29.92,East,85,4.0,6.0,87,0.00,,,0.00,Wunderground v.1.15,2013-03-06 07:35:00,
2013-03-06 02:36:00,28.3,24.9,29.92,ENE,57,4.0,6.0,87,0.00,,,0.00,Wunderground v.1.15,2013-03-06 07:36:00,
2013-03-06 02:40:00,28.4,25.0,29.92,ENE,59,4.0,4.0,87,0.00,,,0.00,Wunderground v.1.15,2013-03-06 07:40:00,
2013-03-06 02:41:00,28.4,25.0,29.92,SE,135,4.0,6.0,87,0.00,,,0.00,Wunderground v.1.15,2013-03-06 07:41:00,
2013-03-06 02:42:00,28.4,25.0,29.92,WSW,241,4.0,6.0,87,0.00,,,0.00,Wunderground v.1.15,2013-03-06 07:42:00,
2013-03-06 02:43:00,28.4,25.0,29.92,ESE,109,4.0,6.0,87,0.00,,,0.00,Wunderground v.1.15,2013-03-06 07:43:00,
2013-03-06 02:46:00,28.5,25.1,29.92,SW,232,4.0,6.0,87,0.00,,,0.00,Wunderground v.1.15,2013-03-06 07:46:00,
2013-03-06 02:49:00,28.5,25.1,29.92,NW,316,4.0,6.0,87,0.00,,,0.00,Wunderground v.1.15,2013-03-06 07:49:00,
2013-03-06 02:50:00,28.5,25.1,29.92,SE,144,4.0,7.0,87,0.00,,,0.00,Wunderground v.1.15,2013-03-06 07:50:00,
2013-03-06 02:51:00,28.5,25.1,29.92,East,81,5.0,7.0,87,0.00,,,0.00,Wunderground v.1.15,2013-03-06 07:51:00,
2013-03-06 02:55:00,28.6,24.9,29.92,East,80,4.0,7.0,86,0.00,,,0.00,Wunderground v.1.15,2013-03-06 07:55:00,
2013-03-06 02:56:00,28.6,24.9,29.92,East,86,5.0,7.0,86,0.00,,,0.00,Wunderground v.1.15,2013-03-06 07:56:00,
2013-03-06 02:57:00,28.6,24.9,29.92,East,97,5.0,7.0,86,0.00,,,0.00,Wunderground v.1.15,2013-03-06 07:57:00,
2013-03-06 03:00:00,28.6,24.9,29.92,ENE,66,4.0,4.0,86,0.00,,,0.00,Wunderground v.1.15,2013-03-06 08:00:00,
2013-03-06 03:01:00,28.6,24.9,29.92,ENE,69,4.0,4.0,86,0.00,,,0.00,Wunderground v.1.15,2013-03-06 08:01:00,
2013-03-06 03:03:00,28.6,24.9,29.92,NE,48,4.0,6.0,86,0.00,,,0.00,Wunderground v.1.15,2013-03-06 08:03:00,
2013-03-06 03:05:00,28.6,24.9,29.92,ESE,105,4.0,6.0,86,0.00,,,0.00,Wunderground v.1.15,2013-03-06 08:05:00,
2013-03-06 03:06:00,28.6,24.9,29.92,East,87,4.0,6.0,86,0.00,,,0.00,Wunderground v.1.15,2013-03-06 08:06:00,
2013-03-06 03:10:00,28.6,24.9,29.92,NW,311,5.0,5.0,86,0.00,,,0.00,Wunderground v.1.15,2013-03-06 08:10:00,
2013-03-06 03:13:00,28.6,24.9,29.92,ESE,102,5.0,8.0,86,0.00,,,0.00,Wunderground v.1.15,2013-03-06 08:13:00,
2013-03-06 03:14:00,28.6,24.9,29.92,ESE,107,5.0,8.0,86,0.00,,,0.00,Wunderground v.1.15,2013-03-06 08:14:00,
2013-03-06 03:16:00,28.6,24.9,29.92,East,92,5.0,8.0,86,0.00,,,0.00,Wunderground v.1.15,2013-03-06 08:16:00,
2013-03-06 03:18:00,28.6,24.9,29.92,ESE,108,5.0,8.0,86,0.00,,,0.00,Wunderground v.1.15,2013-03-06 08:18:00,
2013-03-06 03:19:00,28.6,24.9,29.92,NE,42,5.0,8.0,86,0.00,,,0.00,Wunderground v.1.15,2013-03-06 08:19:00,
2013-03-06 03:21:00,28.6,24.9,29.92,SE,126,4.0,5.0,86,0.00,,,0.00,Wunderground v.1.15,2013-03-06 08:21:00,
2013-03-06 03:23:00,28.6,24.9,29.92,East,101,3.0,11.0,86,0.00,,,0.00,Wunderground v.1.15,2013-03-06 08:23:00,
2013-03-06 03:24:00,28.6,24.9,29.92,SSW,207,4.0,11.0,86,0.00,,,0.00,Wunderground v.1.15,2013-03-06 08:24:00,
2013-03-06 03:26:00,28.6,25.2,29.92,ENE,78,3.0,11.0,87,0.00,,,0.00,Wunderground v.1.15,2013-03-06 08:26:00,
2013-03-06 03:29:00,28.6,25.2,29.92,WNW,296,3.0,11.0,87,0.00,,,0.00,Wunderground v.1.15,2013-03-06 08:29:00,
2013-03-06 03:31:00,28.5,24.8,29.92,SSW,211,3.0,3.0,86,0.00,,,0.00,Wunderground v.1.15,2013-03-06 08:31:00,
2013-03-06 03:35:00,28.5,25.1,29.92,ENE,73,4.0,6.0,87,0.00,,,0.00,Wunderground v.1.15,2013-03-06 08:35:00,
2013-03-06 03:36:00,28.5,25.1,29.92,NE,36,4.0,9.0,87,0.00,,,0.00,Wunderground v.1.15,2013-03-06 08:36:00,
2013-03-06 03:37:00,28.5,25.1,29.92,NNE,16,4.0,9.0,87,0.00,,,0.00,Wunderground v.1.15,2013-03-06 08:37:00,
2013-03-06 03:40:00,28.6,25.2,29.92,NW,323,4.0,4.0,87,0.00,,,0.00,Wunderground v.1.15,2013-03-06 08:40:00,
2013-03-06 03:43:00,28.6,25.2,29.92,SSE,164,4.0,5.0,87,0.00,,,0.00,Wunderground v.1.15,2013-03-06 08:43:00,
2013-03-06 03:44:00,28.6,25.2,29.92,ESE,119,4.0,8.0,87,0.00,,,0.00,Wunderground v.1.15,2013-03-06 08:44:00,
2013-03-06 03:46:00,28.6,25.2,29.92,WNW,303,4.0,8.0,87,0.00,,,0.00,Wunderground v.1.15,2013-03-06 08:46:00,
2013-03-06 03:48:00,28.6,25.2,29.92,East,84,4.0,8.0,87,0.00,,,0.00,Wunderground v.1.15,2013-03-06 08:48:00,
2013-03-06 03:51:00,28.6,25.2,29.92,ENE,64,4.0,4.0,87,0.00,,,0.00,Wunderground v.1.15,2013-03-06 08:51:00,
2013-03-06 03:53:00,28.6,25.2,29.92,NNW,346,4.0,4.0,87,0.00,,,0.00,Wunderground v.1.15,2013-03-06 08:53:00,
2013-03-06 03:54:00,28.6,25.2,29.92,ENE,57,4.0,4.0,87,0.00,,,0.00,Wunderground v.1.15,2013-03-06 08:54:00,
2013-03-06 03:56:00,28.6,25.2,29.93,ENE,76,4.0,4.0,87,0.00,,,0.00,Wunderground v.1.15,2013-03-06 08:56:00,
2013-03-06 03:59:00,28.6,25.2,29.93,ENE,66,3.0,4.0,87,0.00,,,0.00,Wunderground v.1.15,2013-03-06 08:59:00,
2013-03-06 04:00:00,28.5,25.1,29.93,WSW,242,3.0,3.0,87,0.00,,,0.00,Wunderground v.1.15,2013-03-06 09:00:00,
2013-03-06 04:01:00,28.5,25.1,29.93,ESE,117,3.0,3.0,87,0.00,,,0.00,Wunderground v.1.15,2013-03-06 09:01:00,
2013-03-06 04:04:00,28.5,25.1,29.93,NNE,22,3.0,6.0,87,0.00,,,0.00,Wunderground v.1.15,2013-03-06 09:04:00,
2013-03-06 04:05:00,28.5,25.1,29.93,West,276,3.0,6.0,87,0.00,,,0.00,Wunderground v.1.15,2013-03-06 09:05:00,
2013-03-06 04:09:00,28.6,25.2,29.93,WSW,237,3.0,8.0,87,0.00,,,0.00,Wunderground v.1.15,2013-03-06 09:09:00,
2013-03-06 04:10:00,28.6,25.2,29.93,ESE,114,3.0,3.0,87,0.00,,,0.00,Wunderground v.1.15,2013-03-06 09:10:00,
2013-03-06 04:11:00,28.6,25.2,29.93,NE,45,3.0,3.0,87,0.00,,,0.00,Wunderground v.1.15,2013-03-06 09:11:00,
2013-03-06 04:12:00,28.6,25.2,29.93,NE,46,3.0,4.0,87,0.00,,,0.00,Wunderground v.1.15,2013-03-06 09:12:00,
2013-03-06 04:14:00,28.6,25.2,29.93,ENE,77,3.0,4.0,87,0.00,,,0.00,Wunderground v.1.15,2013-03-06 09:14:00,
2013-03-06 04:15:00,28.6,25.2,29.93,SW,217,3.0,4.0,87,0.00,,,0.00,Wunderground v.1.15,2013-03-06 09:15:00,
2013-03-06 04:17:00,28.6,25.2,29.93,SE,132,3.0,4.0,87,0.00,,,0.00,Wunderground v.1.15,2013-03-06 09:17:00,
2013-03-06 04:19:00,28.6,25.2,29.93,NNE,26,3.0,4.0,87,0.00,,,0.00,Wunderground v.1.15,2013-03-06 09:19:00,
2013-03-06 04:20:00,28.6,25.2,29.93,SE,133,3.0,3.0,87,0.00,,,0.00,Wunderground v.1.15,2013-03-06 09:20:00,
2013-03-06 04:22:00,28.7,25.3,29.93,WNW,302,3.0,3.0,87,0.00,,,0.00,Wunderground v.1.15,2013-03-06 09:22:00,
2013-03-06 04:26:00,28.8,25.4,29.93,ENE,77,4.0,5.0,87,0.00,,,0.00,Wunderground v.1.15,2013-03-06 09:26:00,
2013-03-06 04:29:00,28.8,25.4,29.93,ESE,109,4.0,5.0,87,0.00,,,0.00,Wunderground v.1.15,2013-03-06 09:29:00,
2013-03-06 04:31:00,28.8,25.4,29.93,West,275,4.0,4.0,87,0.00,,,0.00,Wunderground v.1.15,2013-03-06 09:31:00,
2013-03-06 04:32:00,28.8,25.4,29.94,WNW,303,4.0,4.0,87,0.00,,,0.00,Wunderground v.1.15,2013-03-06 09:32:00,
2013-03-06 04:33:00,28.8,25.4,29.94,NW,315,4.0,4.0,87,0.00,,,0.00,Wunderground v.1.15,2013-03-06 09:33:00,
2013-03-06 04:35:00,28.8,25.4,29.94,SSW,194,3.0,4.0,87,0.00,,,0.00,Wunderground v.1.15,2013-03-06 09:35:00,
2013-03-06 04:39:00,28.9,25.5,29.94,ENE,77,4.0,4.0,87,0.00,,,0.00,Wunderground v.1.15,2013-03-06 09:39:00,
2013-03-06 04:40:00,28.8,25.4,29.94,ENE,73,4.0,4.0,87,0.00,,,0.00,Wunderground v.1.15,2013-03-06 09:40:00,
2013-03-06 04:41:00,28.9,25.5,29.94,WNW,299,4.0,4.0,87,0.00,,,0.00,Wunderground v.1.15,2013-03-06 09:41:00,
2013-03-06 04:44:00,28.9,25.5,29.94,SW,225,4.0,4.0,87,0.00,,,0.00,Wunderground v.1.15,2013-03-06 09:44:00,
2013-03-06 04:45:00,28.8,25.4,29.94,ENE,64,4.0,6.0,87,0.00,,,0.00,Wunderground v.1.15,2013-03-06 09:45:00,
2013-03-06 04:47:00,28.8,25.4,29.94,NE,49,3.0,6.0,87,0.00,,,0.00,Wunderground v.1.15,2013-03-06 09:47:00,
2013-03-06 04:48:00,28.8,25.4,29.94,East,101,4.0,6.0,87,0.00,,,0.00,Wunderground v.1.15,2013-03-06 09:48:00,
2013-03-06 04:49:00,28.8,25.4,29.94,NNE,21,3.0,6.0,87,0.00,,,0.00,Wunderground v.1.15,2013-03-06 09:49:00,
2013-03-06 04:50:00,28.9,25.5,29.94,SE,142,3.0,3.0,87,0.00,,,0.00,Wunderground v.1.15,2013-03-06 09:50:00,
2013-03-06 04:53:00,28.8,25.4,29.95,WSW,243,3.0,3.0,87,0.00,,,0.00,Wunderground v.1.15,2013-03-06 09:53:00,
2013-03-06 04:54:00,28.8,25.4,29.95,East,80,3.0,6.0,87,0.00,,,0.00,Wunderground v.1.15,2013-03-06 09:54:00,
2013-03-06 04:56:00,28.8,25.4,29.95,North,7,3.0,6.0,87,0.00,,,0.00,Wunderground v.1.15,2013-03-06 09:56:00,
2013-03-06 04:58:00,28.8,25.4,29.95,NE,45,3.0,6.0,87,0.00,,,0.00,Wunderground v.1.15,2013-03-06 09:58:00,
2013-03-06 04:59:00,28.9,25.5,29.95,ESE,105,3.0,6.0,87,0.00,,,0.00,Wunderground v.1.15,2013-03-06 09:59:00,
2013-03-06 05:04:00,28.8,25.4,29.95,ESE,109,3.0,3.0,87,0.00,,,0.00,Wunderground v.1.15,2013-03-06 10:04:00,
2013-03-06 05:05:00,28.8,25.4,29.95,East,91,3.0,5.0,87,0.00,,,0.00,Wunderground v.1.15,2013-03-06 10:05:00,
2013-03-06 05:06:00,28.8,25.4,29.95,ENE,77,3.0,5.0,87,0.00,,,0.00,Wunderground v.1.15,2013-03-06 10:06:00,
2013-03-06 05:07:00,28.8,25.4,29.96,SE,125,3.0,5.0,87,0.00,,,0.00,Wunderground v.1.15,2013-03-06 10:07:00,
2013-03-06 05:10:00,28.8,25.7,29.96,ESE,115,3.0,4.0,88,0.00,,,0.00,Wunderground v.1.15,2013-03-06 10:10:00,
2013-03-06 05:12:00,28.9,25.8,29.96,NE,42,3.0,4.0,88,0.00,,,0.00,Wunderground v.1.15,2013-03-06 10:12:00,
2013-03-06 05:14:00,28.9,25.8,29.97,East,85,3.0,4.0,88,0.00,,,0.00,Wunderground v.1.15,2013-03-06 10:14:00,
2013-03-06 05:15:00,28.9,25.5,29.97,ENE,70,4.0,4.0,87,0.00,,,0.00,Wunderground v.1.15,2013-03-06 10:15:00,
2013-03-06 05:16:00,28.9,25.5,29.97,ENE,71,3.0,4.0,87,0.00,,,0.00,Wunderground v.1.15,2013-03-06 10:16:00,
2013-03-06 05:19:00,28.9,25.8,29.97,ESE,116,3.0,5.0,88,0.00,,,0.00,Wunderground v.1.15,2013-03-06 10:19:00,
2013-03-06 05:20:00,28.9,25.8,29.97,East,85,3.0,3.0,88,0.00,,,0.00,Wunderground v.1.15,2013-03-06 10:20:00,
2013-03-06 05:22:00,28.9,25.5,29.97,SSW,201,3.0,3.0,87,0.00,,,0.00,Wunderground v.1.15,2013-03-06 10:22:00,
2013-03-06 05:24:00,28.9,25.5,29.97,ENE,63,3.0,3.0,87,0.00,,,0.00,Wunderground v.1.15,2013-03-06 10:24:00,
2013-03-06 05:27:00,28.9,25.8,29.97,ENE,57,3.0,3.0,88,0.00,,,0.00,Wunderground v.1.15,2013-03-06 10:27:00,
2013-03-06 05:28:00,28.8,25.7,29.97,NNE,23,3.0,4.0,88,0.00,,,0.00,Wunderground v.1.15,2013-03-06 10:28:00,
2013-03-06 05:33:00,28.8,25.7,29.98,East,100,3.0,7.0,88,0.00,,,0.00,Wunderground v.1.15,2013-03-06 10:33:00,
2013-03-06 05:34:00,28.8,25.7,29.98,East,94,3.0,7.0,88,0.00,,,0.00,Wunderground v.1.15,2013-03-06 10:34:00,
2013-03-06 05:35:00,28.8,25.7,29.98,NE,39,3.0,7.0,88,0.00,,,0.00,Wunderground v.1.15,2013-03-06 10:35:00,
2013-03-06 05:38:00,28.8,25.7,29.98,WSW,242,3.0,7.0,88,0.00,,,0.00,Wunderground v.1.15,2013-03-06 10:38:00,
2013-03-06 05:39:00,28.8,25.7,29.98,SW,230,3.0,7.0,88,0.00,,,0.00,Wunderground v.1.15,2013-03-06 10:39:00,
2013-03-06 05:40:00,28.7,25.6,29.98,NW,312,3.0,4.0,88,0.00,,,0.00,Wunderground v.1.15,2013-03-06 10:40:00,
2013-03-06 05:44:00,28.7,25.6,29.98,East,94,3.0,7.0,88,0.00,,,0.00,Wunderground v.1.15,2013-03-06 10:44:00,
2013-03-06 05:47:00,28.8,25.7,29.99,NE,53,3.0,7.0,88,0.00,,,0.00,Wunderground v.1.15,2013-03-06 10:47:00,
2013-03-06 05:48:00,28.8,25.7,29.99,NE,48,3.0,7.0,88,0.00,,,0.00,Wunderground v.1.15,2013-03-06 10:48:00,
2013-03-06 05:50:00,28.8,25.7,29.99,NNW,340,3.0,4.0,88,0.00,,,0.00,Wunderground v.1.15,2013-03-06 10:50:00,
2013-03-06 05:51:00,28.8,25.7,29.99,SE,143,3.0,4.0,88,0.00,,,0.00,Wunderground v.1.15,2013-03-06 10:51:00,
2013-03-06 05:53:00,28.8,25.7,29.99,SSW,201,3.0,4.0,88,0.00,,,0.00,Wunderground v.1.15,2013-03-06 10:53:00,
2013-03-06 05:54:00,28.8,25.7,29.99,East,81,3.0,4.0,88,0.00,,,0.00,Wunderground v.1.15,2013-03-06 10:54:00,
2013-03-06 05:55:00,28.8,25.7,29.99,SSE,154,3.0,4.0,88,0.00,,,0.00,Wunderground v.1.15,2013-03-06 10:55:00,
2013-03-06 05:56:00,28.8,25.7,29.99,SE,125,3.0,4.0,88,0.00,,,0.00,Wunderground v.1.15,2013-03-06 10:56:00,
2013-03-06 06:00:00,28.8,25.7,29.99,NE,43,3.0,3.0,88,0.00,,,0.00,Wunderground v.1.15,2013-03-06 11:00:00,
2013-03-06 06:01:00,28.8,25.7,29.99,SE,128,3.0,5.0,88,0.00,,,0.00,Wunderground v.1.15,2013-03-06 11:01:00,
2013-03-06 06:02:00,28.8,25.7,29.99,WSW,252,3.0,5.0,88,0.00,,,0.00,Wunderground v.1.15,2013-03-06 11:02:00,
2013-03-06 06:05:00,28.9,25.8,29.99,SE,126,4.0,5.0,88,0.00,,,0.00,Wunderground v.1.15,2013-03-06 11:05:00,
2013-03-06 06:08:00,28.9,25.8,30.00,NE,46,4.0,6.0,88,0.00,,,0.00,Wunderground v.1.15,2013-03-06 11:08:00,
2013-03-06 06:09:00,28.9,25.8,30.00,SE,145,4.0,6.0,88,0.00,,,0.00,Wunderground v.1.15,2013-03-06 11:09:00,
2013-03-06 06:10:00,28.9,25.8,30.00,North,350,4.0,4.0,88,0.00,,,0.00,Wunderground v.1.15,2013-03-06 11:10:00,
2013-03-06 06:12:00,28.9,25.8,30.00,ENE,78,4.0,5.0,88,0.00,,,0.00,Wunderground v.1.15,2013-03-06 11:12:00,
2013-03-06 06:17:00,28.8,25.7,30.00,East,88,3.0,11.0,88,0.00,,,0.00,Wunderground v.1.15,2013-03-06 11:17:00,
2013-03-06 06:18:00,28.8,25.7,30.00,NE,48,3.0,11.0,88,0.00,,,0.00,Wunderground v.1.15,2013-03-06 11:18:00,
2013-03-06 06:19:00,28.8,25.7,30.00,SSE,152,3.0,11.0,88,0.00,,,0.00,Wunderground v.1.15,2013-03-06 11:19:00,
2013-03-06 06:24:00,28.8,25.7,30.00,ENE,71,4.0,11.0,88,0.00,,,0.00,Wunderground v.1.15,2013-03-06 11:24:00,
2013-03-06 06:25:00,28.8,25.7,30.00,East,80,4.0,11.0,88,0.00,,,0.00,Wunderground v.1.15,2013-03-06 11:25:00,
2013-03-06 06:26:00,28.8,25.7,30.00,ENE,59,4.0,11.0,88,0.00,,,0.00,Wunderground v.1.15,2013-03-06 11:26:00,
2013-03-06 06:27:00,28.8,25.7,30.00,East,96,3.0,11.0,88,0.00,,,0.00,Wunderground v.1.15,2013-03-06 11:27:00,
2013-03-06 06:30:00,28.7,25.6,30.00,East,81,3.0,3.0,88,0.00,,,0.00,Wunderground v.1.15,2013-03-06 11:30:00,
2013-03-06 06:31:00,28.6,25.5,30.01,NNE,12,3.0,11.0,88,0.00,,,0.00,Wunderground v.1.15,2013-03-06 11:31:00,
2013-03-06 06:34:00,28.6,25.5,30.01,ENE,59,3.0,11.0,88,0.00,,,0.00,Wunderground v.1.15,2013-03-06 11:34:00,
2013-03-06 06:37:00,28.6,25.5,30.01,ENE,74,3.0,11.0,88,0.00,,,0.00,Wunderground v.1.15,2013-03-06 11:37:00,
2013-03-06 06:38:00,28.6,25.5,30.01,WSW,241,3.0,11.0,88,0.00,,,0.00,Wunderground v.1.15,2013-03-06 11:38:00,
2013-03-06 06:39:00,28.6,25.5,30.01,NNW,336,3.0,11.0,88,0.00,,,0.00,Wunderground v.1.15,2013-03-06 11:39:00,
2013-03-06 06:40:00,28.6,25.5,30.01,NNE,21,3.0,11.0,88,0.00,,,0.00,Wunderground v.1.15,2013-03-06 11:40:00,
2013-03-06 06:43:00,28.5,25.7,30.01,East,95,3.0,11.0,89,0.00,,,0.00,Wunderground v.1.15,2013-03-06 11:43:00,
2013-03-06 06:45:00,28.5,25.7,30.01,ENE,63,3.0,11.0,89,0.00,,,0.00,Wunderground v.1.15,2013-03-06 11:45:00,
2013-03-06 06:49:00,28.5,25.7,30.01,NNW,341,3.0,11.0,89,0.00,,,0.00,Wunderground v.1.15,2013-03-06 11:49:00,
2013-03-06 06:50:00,28.5,25.7,30.01,SE,125,3.0,3.0,89,0.00,,,0.00,Wunderground v.1.15,2013-03-06 11:50:00,
2013-03-06 06:52:00,28.5,25.7,30.01,WSW,246,3.0,11.0,89,0.00,,,0.00,Wunderground v.1.15,2013-03-06 11:52:00,
2013-03-06 06:54:00,28.5,25.7,30.02,NW,319,3.0,11.0,89,0.00,,,0.00,Wunderground v.1.15,2013-03-06 11:54:00,
2013-03-06 06:55:00,28.5,25.7,30.02,North,5,3.0,11.0,89,0.00,,,0.00,Wunderground v.1.15,2013-03-06 11:55:00,
2013-03-06 06:58:00,28.5,25.7,30.02,SSE,165,3.0,11.0,89,0.00,,,0.00,Wunderground v.1.15,2013-03-06 11:58:00,
2013-03-06 06:59:00,28.4,25.6,30.02,NNE,32,3.0,11.0,89,0.00,,,0.00,Wunderground v.1.15,2013-03-06 11:59:00,
2013-03-06 07:04:00,28.5,25.7,30.02,West,270,3.0,3.0,89,0.00,,,0.00,Wunderground v.1.15,2013-03-06 12:04:00,
2013-03-06 07:05:00,28.5,25.7,30.02,WSW,252,3.0,3.0,89,0.00,,,0.00,Wunderground v.1.15,2013-03-06 12:05:00,
2013-03-06 07:08:00,28.5,25.7,30.02,ENE,77,3.0,7.0,89,0.00,,,0.00,Wunderground v.1.15,2013-03-06 12:08:00,
2013-03-06 07:09:00,28.5,25.7,30.02,NE,53,3.0,7.0,89,0.00,,,0.00,Wunderground v.1.15,2013-03-06 12:09:00,
2013-03-06 07:10:00,28.5,25.7,30.02,ESE,114,3.0,3.0,89,0.00,,,0.00,Wunderground v.1.15,2013-03-06 12:10:00,
2013-03-06 07:12:00,28.5,25.7,30.02,East,95,3.0,3.0,89,0.00,,,0.00,Wunderground v.1.15,2013-03-06 12:12:00,
2013-03-06 07:13:00,28.5,25.7,30.02,South,190,3.0,3.0,89,0.00,,,0.00,Wunderground v.1.15,2013-03-06 12:13:00,
2013-03-06 07:18:00,28.5,25.7,30.03,ENE,63,3.0,4.0,89,0.00,,,0.00,Wunderground v.1.15,2013-03-06 12:18:00,
2013-03-06 07:20:00,28.5,25.7,30.03,ENE,62,3.0,3.0,89,0.00,,,0.00,Wunderground v.1.15,2013-03-06 12:20:00,
2013-03-06 07:21:00,28.6,25.8,30.03,East,81,3.0,3.0,89,0.00,,,0.00,Wunderground v.1.15,2013-03-06 12:21:00,
2013-03-06 07:26:00,28.6,25.8,30.03,SE,142,3.0,5.0,89,0.00,,,0.00,Wunderground v.1.15,2013-03-06 12:26:00,
2013-03-06 07:29:00,28.7,25.9,30.04,SE,130,3.0,5.0,89,0.00,,,0.00,Wunderground v.1.15,2013-03-06 12:29:00,
2013-03-06 07:33:00,28.8,26.0,30.04,NE,36,3.0,4.0,89,0.00,,,0.00,Wunderground v.1.15,2013-03-06 12:33:00,
2013-03-06 07:34:00,28.8,26.0,30.04,East,91,3.0,4.0,89,0.00,,,0.00,Wunderground v.1.15,2013-03-06 12:34:00,
2013-03-06 07:38:00,28.9,26.1,30.04,ENE,78,3.0,4.0,89,0.00,,,0.00,Wunderground v.1.15,2013-03-06 12:38:00,
2013-03-06 07:40:00,29.0,26.2,30.04,ENE,74,3.0,3.0,89,0.00,,,0.00,Wunderground v.1.15,2013-03-06 12:40:00,
2013-03-06 07:41:00,29.0,26.2,30.04,ENE,78,3.0,3.0,89,0.00,,,0.00,Wunderground v.1.15,2013-03-06 12:41:00,
2013-03-06 07:42:00,29.1,26.3,30.04,SE,130,3.0,3.0,89,0.00,,,0.00,Wunderground v.1.15,2013-03-06 12:42:00,
2013-03-06 07:45:00,29.2,26.1,30.04,East,98,3.0,5.0,88,0.00,,,0.00,Wunderground v.1.15,2013-03-06 12:45:00,
2013-03-06 07:47:00,29.3,26.2,30.05,NE,35,3.0,6.0,88,0.00,,,0.00,Wunderground v.1.15,2013-03-06 12:47:00,
2013-03-06 07:48:00,29.3,26.2,30.05,ENE,63,3.0,6.0,88,0.00,,,0.00,Wunderground v.1.15,2013-03-06 12:48:00,
2013-03-06 07:49:00,29.4,26.3,30.05,NNW,343,3.0,3.0,88,0.00,,,0.00,Wunderground v.1.15,2013-03-06 12:49:00,
2013-03-06 07:51:00,29.5,26.4,30.05,SE,135,3.0,3.0,88,0.00,,,0.00,Wunderground v.1.15,2013-03-06 12:51:00,
2013-03-06 07:56:00,29.8,26.7,30.05,NNE,25,3.0,7.0,88,0.00,,,0.00,Wunderground v.1.15,2013-03-06 12:56:00,
2013-03-06 07:57:00,30.0,26.9,30.05,ENE,59,3.0,7.0,88,0.00,,,0.00,Wunderground v.1.15,2013-03-06 12:57:00,
2013-03-06 07:59:00,30.1,26.7,30.05,North,351,3.0,7.0,87,0.00,,,0.00,Wunderground v.1.15,2013-03-06 12:59:00,
2013-03-06 08:01:00,30.2,26.8,30.06,SSW,204,3.0,3.0,87,0.00,,,0.00,Wunderground v.1.15,2013-03-06 13:01:00,
2013-03-06 08:04:00,30.3,26.9,30.05,NNE,25,3.0,3.0,87,0.00,,,0.00,Wunderground v.1.15,2013-03-06 13:04:00,
2013-03-06 08:06:00,30.5,27.1,30.05,WNW,282,3.0,4.0,87,0.00,,,0.00,Wunderground v.1.15,2013-03-06 13:06:00,
2013-03-06 08:10:00,31.0,27.3,30.06,ESE,121,3.0,4.0,86,0.00,,,0.00,Wunderground v.1.15,2013-03-06 13:10:00,
2013-03-06 08:12:00,31.1,27.4,30.06,East,90,3.0,4.0,86,0.00,,,0.00,Wunderground v.1.15,2013-03-06 13:12:00,
2013-03-06 08:13:00,31.2,27.5,30.06,ESE,107,3.0,4.0,86,0.00,,,0.00,Wunderground v.1.15,2013-03-06 13:13:00,
2013-03-06 08:16:00,31.4,27.4,30.06,ENE,73,3.0,4.0,85,0.00,,,0.00,Wunderground v.1.15,2013-03-06 13:16:00,
2013-03-06 08:17:00,31.5,27.5,30.06,SSE,149,2.0,4.0,85,0.00,,,0.00,Wunderground v.1.15,2013-03-06 13:17:00,
2013-03-06 08:18:00,31.6,27.6,30.06,East,95,2.0,4.0,85,0.00,,,0.00,Wunderground v.1.15,2013-03-06 13:18:00,
2013-03-06 08:21:00,31.9,27.9,30.06,NE,38,2.0,3.0,85,0.00,,,0.00,Wunderground v.1.15,2013-03-06 13:21:00,
2013-03-06 08:22:00,32.0,27.7,30.07,South,171,2.0,3.0,84,0.00,,,0.00,Wunderground v.1.15,2013-03-06 13:22:00,
2013-03-06 08:23:00,32.1,27.8,30.07,SE,129,2.0,3.0,84,0.00,,,0.00,Wunderground v.1.15,2013-03-06 13:23:00,
2013-03-06 08:27:00,32.2,27.6,30.07,SSW,209,3.0,4.0,83,0.00,,,0.00,Wunderground v.1.15,2013-03-06 13:27:00,
2013-03-06 08:29:00,32.2,27.6,30.07,ENE,60,3.0,4.0,83,0.00,,,0.00,Wunderground v.1.15,2013-03-06 13:29:00,
2013-03-06 08:31:00,32.4,27.8,30.07,SW,230,3.0,6.0,83,0.00,,,0.00,Wunderground v.1.15,2013-03-06 13:31:00,
2013-03-06 08:34:00,32.6,28.0,30.07,West,259,3.0,6.0,83,0.00,,,0.00,Wunderground v.1.15,2013-03-06 13:34:00,
2013-03-06 08:37:00,32.6,27.7,30.07,ENE,64,3.0,6.0,82,0.00,,,0.00,Wunderground v.1.15,2013-03-06 13:37:00,
2013-03-06 08:38:00,32.7,27.8,30.08,WSW,249,3.0,6.0,82,0.00,,,0.00,Wunderground v.1.15,2013-03-06 13:38:00,
2013-03-06 08:40:00,32.7,27.8,30.08,North,353,4.0,4.0,82,0.00,,,0.00,Wunderground v.1.15,2013-03-06 13:40:00,
2013-03-06 08:43:00,32.9,28.0,30.08,North,3,4.0,5.0,82,0.00,,,0.00,Wunderground v.1.15,2013-03-06 13:43:00,
2013-03-06 08:46:00,33.2,28.3,30.08,NE,36,4.0,5.0,82,0.00,,,0.00,Wunderground v.1.15,2013-03-06 13:46:00,
2013-03-06 08:47:00,33.3,28.1,30.08,NW,310,4.0,5.0,81,0.00,,,0.00,Wunderground v.1.15,2013-03-06 13:47:00,
2013-03-06 08:50:00,33.5,28.3,30.08,East,84,3.0,3.0,81,0.00,,,0.00,Wunderground v.1.15,2013-03-06 13:50:00,
2013-03-06 08:51:00,33.6,28.4,30.08,East,96,3.0,3.0,81,0.00,,,0.00,Wunderground v.1.15,2013-03-06 13:51:00,
2013-03-06 08:55:00,33.8,28.3,30.08,ENE,57,3.0,4.0,80,0.00,,,0.00,Wunderground v.1.15,2013-03-06 13:55:00,
2013-03-06 08:57:00,33.9,28.4,30.09,North,355,3.0,4.0,80,0.00,,,0.00,Wunderground v.1.15,2013-03-06 13:57:00,
2013-03-06 08:59:00,34.0,28.5,30.09,East,81,3.0,6.0,80,0.00,,,0.00,Wunderground v.1.15,2013-03-06 13:59:00,
2013-03-06 09:03:00,33.8,28.0,30.09,NE,45,3.0,6.0,79,0.00,,,0.00,Wunderground v.1.15,2013-03-06 14:03:00,
2013-03-06 09:05:00,34.1,28.6,30.09,NE,45,3.0,6.0,80,0.00,,,0.00,Wunderground v.1.15,2013-03-06 14:05:00,
2013-03-06 09:07:00,34.2,28.7,30.09,NE,55,3.0,6.0,80,0.00,,,0.00,Wunderground v.1.15,2013-03-06 14:07:00,
2013-03-06 09:10:00,34.5,29.0,30.09,ESE,104,3.0,3.0,80,0.00,,,0.00,Wunderground v.1.15,2013-03-06 14:10:00,
2013-03-06 09:12:00,34.7,28.9,30.09,NW,313,3.0,7.0,79,0.00,,,0.00,Wunderground v.1.15,2013-03-06 14:12:00,
2013-03-06 09:13:00,34.8,28.6,30.09,NE,43,3.0,7.0,78,0.00,,,0.00,Wunderground v.1.15,2013-03-06 14:13:00,
2013-03-06 09:15:00,35.0,28.8,30.10,ENE,69,2.0,7.0,78,0.00,,,0.00,Wunderground v.1.15,2013-03-06 14:15:00,
2013-03-06 09:17:00,35.1,28.9,30.10,ENE,77,2.0,7.0,78,0.00,,,0.00,Wunderground v.1.15,2013-03-06 14:17:00,
2013-03-06 09:19:00,35.1,28.6,30.10,ENE,67,2.0,7.0,77,0.00,,,0.00,Wunderground v.1.15,2013-03-06 14:19:00,
2013-03-06 09:21:00,35.1,28.6,30.10,ENE,64,3.0,3.0,77,0.00,,,0.00,Wunderground v.1.15,2013-03-06 14:21:00,
2013-03-06 09:23:00,35.3,29.1,30.10,SE,143,2.0,4.0,78,0.00,,,0.00,Wunderground v.1.15,2013-03-06 14:23:00,
2013-03-06 09:24:00,35.3,28.8,30.10,West,263,3.0,4.0,77,0.00,,,0.00,Wunderground v.1.15,2013-03-06 14:24:00,
2013-03-06 09:25:00,35.2,28.7,30.10,SSE,161,3.0,4.0,77,0.00,,,0.00,Wunderground v.1.15,2013-03-06 14:25:00,
2013-03-06 09:26:00,35.2,28.7,30.10,East,97,3.0,5.0,77,0.00,,,0.00,Wunderground v.1.15,2013-03-06 14:26:00,
2013-03-06 09:30:00,35.2,28.7,30.10,NE,49,3.0,6.0,77,0.00,,,0.00,Wunderground v.1.15,2013-03-06 14:30:00,
2013-03-06 09:31:00,35.3,28.8,30.10,East,91,4.0,6.0,77,0.00,,,0.00,Wunderground v.1.15,2013-03-06 14:31:00,
2013-03-06 09:34:00,35.8,29.3,30.10,NNE,32,3.0,6.0,77,0.00,,,0.00,Wunderground v.1.15,2013-03-06 14:34:00,
2013-03-06 09:35:00,36.0,29.5,30.10,NNW,341,3.0,6.0,77,0.00,,,0.00,Wunderground v.1.15,2013-03-06 14:35:00,
2013-03-06 09:36:00,36.1,29.3,30.10,North,351,2.0,6.0,76,0.00,,,0.00,Wunderground v.1.15,2013-03-06 14:36:00,
2013-03-06 09:41:00,36.1,29.3,30.10,ENE,77,2.0,2.0,76,0.00,,,0.00,Wunderground v.1.15,2013-03-06 14:41:00,
2013-03-06 09:42:00,36.3,29.5,30.10,North,357,2.0,2.0,76,0.00,,,0.00,Wunderground v.1.15,2013-03-06 14:42:00,
2013-03-06 09:44:00,36.5,29.3,30.10,ENE,60,2.0,2.0,75,0.00,,,0.00,Wunderground v.1.15,2013-03-06 14:44:00,
2013-03-06 09:48:00,36.8,29.6,30.11,NE,53,2.0,2.0,75,0.00,,,0.00,Wunderground v.1.15,2013-03-06 14:48:00,
2013-03-06 09:50:00,37.1,29.9,30.11,ESE,109,1.0,2.0,75,0.00,,,0.00,Wunderground v.1.15,2013-03-06 14:50:00,
2013-03-06 09:52:00,37.2,29.7,30.11,SSW,212,2.0,2.0,74,0.00,,,0.00,Wunderground v.1.15,2013-03-06 14:52:00,
2013-03-06 09:54:00,37.3,29.8,30.11,NNE,24,2.0,2.0,74,0.00,,,0.00,Wunderground v.1.15,2013-03-06 14:54:00,
2013-03-06 09:55:00,37.3,29.8,30.11,ESE,122,2.0,2.0,74,0.00,,,0.00,Wunderground v.1.15,2013-03-06 14:55:00,
2013-03-06 09:58:00,37.3,29.4,30.11,SSE,151,2.0,2.0,73,0.00,,,0.00,Wunderground v.1.15,2013-03-06 14:58:00,
2013-03-06 09:59:00,37.3,29.4,30.11,East,92,2.0,2.0,73,0.00,,,0.00,Wunderground v.1.15,2013-03-06 14:59:00,
2013-03-06 10:01:00,37.2,29.3,30.11,NNW,346,3.0,8.0,73,0.00,,,0.00,Wunderground v.1.15,2013-03-06 15:01:00,
2013-03-06 10:04:00,37.2,29.3,30.11,NNE,12,3.0,8.0,73,0.00,,,0.00,Wunderground v.1.15,2013-03-06 15:04:00,
2013-03-06 10:05:00,37.2,29.0,30.11,NE,45,3.0,8.0,72,0.00,,,0.00,Wunderground v.1.15,2013-03-06 15:05:00,
2013-03-06 10:09:00,37.4,29.5,30.11,ENE,66,3.0,8.0,73,0.00,,,0.00,Wunderground v.1.15,2013-03-06 15:09:00,
2013-03-06 10:14:00,37.5,29.6,30.12,North,351,3.0,4.0,73,0.00,,,0.00,Wunderground v.1.15,2013-03-06 15:14:00,
2013-03-06 10:16:00,37.7,29.8,30.11,NNE,15,3.0,4.0,73,0.00,,,0.00,Wunderground v.1.15,2013-03-06 15:16:00,
2013-03-06 10:17:00,37.9,29.7,30.12,ENE,74,2.0,4.0,72,0.00,,,0.00,Wunderground v.1.15,2013-03-06 15:17:00,
2013-03-06 10:22:00,38.4,29.8,30.12,NNE,32,2.0,4.0,71,0.00,,,0.00,Wunderground v.1.15,2013-03-06 15:22:00,
2013-03-06 10:25:00,38.8,30.2,30.12,ENE,74,2.0,4.0,71,0.00,,,0.00,Wunderground v.1.15,2013-03-06 15:25:00,
2013-03-06 10:28:00,39.1,30.1,30.12,East,97,2.0,4.0,70,0.00,,,0.00,Wunderground v.1.15,2013-03-06 15:28:00,
2013-03-06 10:29:00,39.2,30.2,30.12,WSW,256,2.0,4.0,70,0.00,,,0.00,Wunderground v.1.15,2013-03-06 15:29:00,
2013-03-06 10:30:00,39.5,30.5,30.12,NE,46,2.0,2.0,70,0.00,,,0.00,Wunderground v.1.15,2013-03-06 15:30:00,
2013-03-06 10:31:00,39.7,30.4,30.12,NE,56,2.0,2.0,69,0.00,,,0.00,Wunderground v.1.15,2013-03-06 15:31:00,
2013-03-06 10:34:00,39.7,30.0,30.12,NW,313,2.0,4.0,68,0.00,,,0.00,Wunderground v.1.15,2013-03-06 15:34:00,
2013-03-06 10:35:00,39.5,29.8,30.12,SE,143,2.0,4.0,68,0.00,,,0.00,Wunderground v.1.15,2013-03-06 15:35:00,
2013-03-06 10:37:00,39.5,29.8,30.12,East,100,2.0,4.0,68,0.00,,,0.00,Wunderground v.1.15,2013-03-06 15:37:00,
2013-03-06 10:38:00,39.4,29.7,30.12,East,79,2.0,4.0,68,0.00,,,0.00,Wunderground v.1.15,2013-03-06 15:38:00,
2013-03-06 10:39:00,39.3,29.6,30.12,West,274,2.0,4.0,68,0.00,,,0.00,Wunderground v.1.15,2013-03-06 15:39:00,
2013-03-06 10:42:00,39.0,29.7,30.12,NE,46,3.0,4.0,69,0.00,,,0.00,Wunderground v.1.15,2013-03-06 15:42:00,
2013-03-06 10:43:00,39.1,30.1,30.12,North,355,3.0,5.0,70,0.00,,,0.00,Wunderground v.1.15,2013-03-06 15:43:00,
2013-03-06 10:46:00,38.8,29.5,30.12,ENE,64,3.0,6.0,69,0.00,,,0.00,Wunderground v.1.15,2013-03-06 15:46:00,
2013-03-06 10:47:00,38.8,29.5,30.12,ENE,74,3.0,6.0,69,0.00,,,0.00,Wunderground v.1.15,2013-03-06 15:47:00,
2013-03-06 10:49:00,38.8,29.8,30.12,ENE,60,3.0,3.0,70,0.00,,,0.00,Wunderground v.1.15,2013-03-06 15:49:00,
2013-03-06 10:51:00,38.8,29.5,30.12,West,281,3.0,3.0,69,0.00,,,0.00,Wunderground v.1.15,2013-03-06 15:51:00,
2013-03-06 10:53:00,38.9,29.9,30.13,WSW,257,3.0,3.0,70,0.00,,,0.00,Wunderground v.1.15,2013-03-06 15:53:00,
2013-03-06 10:55:00,38.9,29.6,30.13,NE,55,3.0,3.0,69,0.00,,,0.00,Wunderground v.1.15,2013-03-06 15:55:00,
2013-03-06 11:00:00,38.9,29.6,30.13,NW,314,3.0,3.0,69,0.00,,,0.00,Wunderground v.1.15,2013-03-06 16:00:00,
2013-03-06 11:01:00,38.9,29.6,30.13,ESE,108,3.0,4.0,69,0.00,,,0.00,Wunderground v.1.15,2013-03-06 16:01:00,
2013-03-06 11:05:00,38.9,29.6,30.13,NE,39,3.0,4.0,69,0.00,,,0.00,Wunderground v.1.15,2013-03-06 16:05:00,
2013-03-06 11:06:00,39.1,29.8,30.13,North,5,3.0,4.0,69,0.00,,,0.00,Wunderground v.1.15,2013-03-06 16:06:00,
2013-03-06 11:07:00,39.2,29.9,30.13,NE,55,3.0,4.0,69,0.00,,,0.00,Wunderground v.1.15,2013-03-06 16:07:00,
2013-03-06 11:09:00,39.3,30.0,30.13,East,84,2.0,6.0,69,0.00,,,0.00,Wunderground v.1.15,2013-03-06 16:09:00,
2013-03-06 11:14:00,39.2,30.2,30.13,East,92,2.0,2.0,70,0.00,,,0.00,Wunderground v.1.15,2013-03-06 16:14:00,
2013-03-06 11:15:00,39.3,30.3,30.13,NNE,12,1.0,3.0,70,0.00,,,0.00,Wunderground v.1.15,2013-03-06 16:15:00,
2013-03-06 11:19:00,39.4,29.7,30.13,NW,310,2.0,4.0,68,0.00,,,0.00,Wunderground v.1.15,2013-03-06 16:19:00,
2013-03-06 11:20:00,39.3,29.6,30.13,ENE,57,2.0,2.0,68,0.00,,,0.00,Wunderground v.1.15,2013-03-06 16:20:00,
2013-03-06 11:22:00,39.0,29.3,30.13,East,96,2.0,3.0,68,0.00,,,0.00,Wunderground v.1.15,2013-03-06 16:22:00,
2013-03-06 11:24:00,38.9,29.6,30.13,NE,46,2.0,3.0,69,0.00,,,0.00,Wunderground v.1.15,2013-03-06 16:24:00,
2013-03-06 11:25:00,38.9,29.6,30.13,SE,142,2.0,3.0,69,0.00,,,0.00,Wunderground v.1.15,2013-03-06 16:25:00,
2013-03-06 11:29:00,39.1,30.1,30.13,NNW,331,2.0,3.0,70,0.00,,,0.00,Wunderground v.1.15,2013-03-06 16:29:00,
2013-03-06 11:31:00,39.1,29.8,30.13,North,3,2.0,3.0,69,0.00,,,0.00,Wunderground v.1.15,2013-03-06 16:31:00,
2013-03-06 11:34:00,39.2,29.9,30.13,ENE,74,3.0,8.0,69,0.00,,,0.00,Wunderground v.1.15,2013-03-06 16:34:00,
2013-03-06 11:37:00,39.0,29.3,30.13,WNW,302,3.0,8.0,68,0.00,,,0.00,Wunderground v.1.15,2013-03-06 16:37:00,
2013-03-06 11:38:00,39.0,29.7,30.13,NE,55,3.0,8.0,69,0.00,,,0.00,Wunderground v.1.15,2013-03-06 16:38:00,
2013-03-06 11:39:00,39.0,29.7,30.12,NE,45,4.0,5.0,69,0.00,,,0.00,Wunderground v.1.15,2013-03-06 16:39:00,
2013-03-06 11:41:00,39.0,29.7,30.13,NW,323,4.0,5.0,69,0.00,,,0.00,Wunderground v.1.15,2013-03-06 16:41:00,
2013-03-06 11:42:00,39.2,29.9,30.12,NE,52,3.0,5.0,69,0.00,,,0.00,Wunderground v.1.15,2013-03-06 16:42:00,
2013-03-06 11:43:00,39.3,30.3,30.12,ESE,107,3.0,5.0,70,0.00,,,0.00,Wunderground v.1.15,2013-03-06 16:43:00,
2013-03-06 11:46:00,39.9,30.9,30.12,East,80,2.0,5.0,70,0.00,,,0.00,Wunderground v.1.15,2013-03-06 16:46:00,
2013-03-06 11:50:00,39.9,30.2,30.12,NNW,340,2.0,2.0,68,0.00,,,0.00,Wunderground v.1.15,2013-03-06 16:50:00,
2013-03-06 11:51:00,40.0,30.3,30.12,NE,42,2.0,2.0,68,0.00,,,0.00,Wunderground v.1.15,2013-03-06 16:51:00,
2013-03-06 11:54:00,40.5,30.8,30.12,NNW,347,2.0,5.0,68,0.00,,,0.00,Wunderground v.1.15,2013-03-06 16:54:00,
2013-03-06 11:55:00,40.7,30.2,30.12,NNE,21,3.0,5.0,66,0.00,,,0.00,Wunderground v.1.15,2013-03-06 16:55:00,
2013-03-06 11:59:00,40.7,30.2,30.12,ENE,59,3.0,8.0,66,0.00,,,0.00,Wunderground v.1.15,2013-03-06 16:59:00,
2013-03-06 12:01:00,40.9,30.4,30.12,NE,56,3.0,8.0,66,0.00,,,0.00,Wunderground v.1.15,2013-03-06 17:01:00,
2013-03-06 12:04:00,40.8,29.9,30.13,East,94,3.0,8.0,65,0.00,,,0.00,Wunderground v.1.15,2013-03-06 17:04:00,
2013-03-06 12:06:00,40.3,29.8,30.13,East,93,3.0,8.0,66,0.00,,,0.00,Wunderground v.1.15,2013-03-06 17:06:00,
2013-03-06 12:09:00,40.5,30.4,30.13,ENE,57,3.0,8.0,67,0.00,,,0.00,Wunderground v.1.15,2013-03-06 17:09:00,
2013-03-06 12:12:00,41.0,30.9,30.13,NNW,332,3.0,3.0,67,0.00,,,0.00,Wunderground v.1.15,2013-03-06 17:12:00,
2013-03-06 12:14:00,41.4,30.5,30.13,ENE,76,3.0,3.0,65,0.00,,,0.00,Wunderground v.1.15,2013-03-06 17:14:00,
2013-03-06 12:15:00,41.1,29.8,30.13,NE,48,3.0,3.0,64,0.00,,,0.00,Wunderground v.1.15,2013-03-06 17:15:00,
2013-03-06 12:18:00,41.5,30.6,30.13,NE,46,3.0,3.0,65,0.00,,,0.00,Wunderground v.1.15,2013-03-06 17:18:00,
2013-03-06 12:19:00,41.7,30.8,30.13,NNW,348,3.0,3.0,65,0.00,,,0.00,Wunderground v.1.15,2013-03-06 17:19:00,
2013-03-06 12:22:00,41.8,30.5,30.13,NNW,329,2.0,5.0,64,0.00,,,0.00,Wunderground v.1.15,2013-03-06 17:22:00,
2013-03-06 12:25:00,42.3,31.0,30.13,WNW,299,2.0,5.0,64,0.00,,,0.00,Wunderground v.1.15,2013-03-06 17:25:00,
2013-03-06 12:26:00,42.4,30.7,30.13,ENE,77,2.0,5.0,63,0.00,,,0.00,Wunderground v.1.15,2013-03-06 17:26:00,
2013-03-06 12:30:00,43.1,31.4,30.13,NE,53,2.0,3.0,63,0.00,,,0.00,Wunderground v.1.15,2013-03-06 17:30:00,
2013-03-06 12:31:00,43.2,31.1,30.13,NE,52,1.0,3.0,62,0.00,,,0.00,Wunderground v.1.15,2013-03-06 17:31:00,
2013-03-06 12:32:00,43.3,30.7,30.13,ENE,57,1.0,3.0,61,0.00,,,0.00,Wunderground v.1.15,2013-03-06 17:32:00,
2013-03-06 12:36:00,42.0,30.7,30.14,ENE,74,2.0,4.0,64,0.00,,,0.00,Wunderground v.1.15,2013-03-06 17:36:00,
2013-03-06 12:38:00,42.2,30.9,30.14,ENE,62,2.0,4.0,64,0.00,,,0.00,Wunderground v.1.15,2013-03-06 17:38:00,
2013-03-06 12:40:00,43.2,31.1,30.14,ENE,57,2.0,5.0,62,0.00,,,0.00,Wunderground v.1.15,2013-03-06 17:40:00,
2013-03-06 12:41:00,43.5,30.9,30.14,NE,34,3.0,5.0,61,0.00,,,0.00,Wunderground v.1.15,2013-03-06 17:41:00,
2013-03-06 12:44:00,43.8,30.8,30.14,NNE,22,2.0,5.0,60,0.00,,,0.00,Wunderground v.1.15,2013-03-06 17:44:00,
2013-03-06 12:47:00,43.7,30.7,30.15,North,10,2.0,5.0,60,0.00,,,0.00,Wunderground v.1.15,2013-03-06 17:47:00,
2013-03-06 12:49:00,43.9,31.3,30.15,North,354,2.0,5.0,61,0.00,,,0.00,Wunderground v.1.15,2013-03-06 17:49:00,
2013-03-06 12:50:00,44.2,31.6,30.15,North,354,1.0,2.0,61,0.00,,,0.00,Wunderground v.1.15,2013-03-06 17:50:00,
2013-03-06 12:53:00,44.5,31.1,30.15,North,353,1.0,2.0,59,0.00,,,0.00,Wunderground v.1.15,2013-03-06 17:53:00,
2013-03-06 12:55:00,44.5,31.1,30.15,North,353,0.0,2.0,59,0.00,,,0.00,Wunderground v.1.15,2013-03-06 17:55:00,
2013-03-06 12:57:00,44.2,30.3,30.15,West,278,0.0,2.0,58,0.00,,,0.00,Wunderground v.1.15,2013-03-06 17:57:00,
2013-03-06 13:03:00,43.7,31.1,30.15,ENE,67,0.0,0.0,61,0.00,,,0.00,Wunderground v.1.15,2013-03-06 18:03:00,
2013-03-06 13:04:00,43.7,31.5,30.15,ENE,66,0.0,0.0,62,0.00,,,0.00,Wunderground v.1.15,2013-03-06 18:04:00,
2013-03-06 13:07:00,43.9,30.9,30.15,NNW,348,0.0,0.0,60,0.00,,,0.00,Wunderground v.1.15,2013-03-06 18:07:00,
2013-03-06 13:08:00,44.0,31.4,30.15,NNW,348,0.0,0.0,61,0.00,,,0.00,Wunderground v.1.15,2013-03-06 18:08:00,
2013-03-06 19:14:00,35.9,29.7,30.20,West,281,3.0,3.0,78,0.00,,,0.00,Wunderground v.1.15,2013-03-07 00:14:00,
2013-03-06 19:15:00,35.9,29.7,30.20,West,263,3.0,4.0,78,0.00,,,0.00,Wunderground v.1.15,2013-03-07 00:15:00,
2013-03-06 19:16:00,35.9,29.7,30.20,West,269,3.0,4.0,78,0.00,,,0.00,Wunderground v.1.15,2013-03-07 00:16:00,
2013-03-06 19:20:00,35.7,29.5,30.21,WNW,291,3.0,3.0,78,0.00,,,0.00,Wunderground v.1.15,2013-03-07 00:20:00,
2013-03-06 19:21:00,35.7,29.8,30.21,West,281,3.0,3.0,79,0.00,,,0.00,Wunderground v.1.15,2013-03-07 00:21:00,
2013-03-06 19:22:00,35.7,29.8,30.21,West,269,3.0,4.0,79,0.00,,,0.00,Wunderground v.1.15,2013-03-07 00:22:00,
2013-03-06 19:23:00,35.7,29.8,30.21,West,270,3.0,4.0,79,0.00,,,0.00,Wunderground v.1.15,2013-03-07 00:23:00,
2013-03-06 19:25:00,35.5,29.6,30.21,NW,322,3.0,6.0,79,0.00,,,0.00,Wunderground v.1.15,2013-03-07 00:25:00,
2013-03-06 19:26:00,35.5,29.6,30.21,West,270,3.0,6.0,79,0.00,,,0.00,Wunderground v.1.15,2013-03-07 00:26:00,
2013-03-06 19:29:00,35.4,29.5,30.21,WNW,294,3.0,6.0,79,0.00,,,0.00,Wunderground v.1.15,2013-03-07 00:29:00,
2013-03-06 19:33:00,35.3,29.7,30.21,West,280,3.0,6.0,80,0.00,,,0.00,Wunderground v.1.15,2013-03-07 00:33:00,
2013-03-06 19:34:00,35.2,29.6,30.21,WNW,295,3.0,6.0,80,0.00,,,0.00,Wunderground v.1.15,2013-03-07 00:34:00,
2013-03-06 19:35:00,35.2,29.6,30.21,West,273,3.0,6.0,80,0.00,,,0.00,Wunderground v.1.15,2013-03-07 00:35:00,
2013-03-06 19:36:00,35.2,29.6,30.21,West,274,3.0,6.0,80,0.00,,,0.00,Wunderground v.1.15,2013-03-07 00:36:00,
2013-03-06 19:41:00,35.1,29.9,30.22,NW,315,2.0,5.0,81,0.00,,,0.00,Wunderground v.1.15,2013-03-07 00:41:00,
2013-03-06 19:42:00,35.1,29.9,30.22,WSW,258,2.0,5.0,81,0.00,,,0.00,Wunderground v.1.15,2013-03-07 00:42:00,
2013-03-06 19:44:00,35.0,29.8,30.22,WSW,244,2.0,5.0,81,0.00,,,0.00,Wunderground v.1.15,2013-03-07 00:44:00,
2013-03-06 19:46:00,35.0,29.8,30.22,WNW,289,3.0,5.0,81,0.00,,,0.00,Wunderground v.1.15,2013-03-07 00:46:00,
2013-03-06 19:47:00,35.0,29.8,30.22,NW,306,3.0,5.0,81,0.00,,,0.00,Wunderground v.1.15,2013-03-07 00:47:00,
2013-03-06 19:49:00,35.0,29.8,30.22,West,281,3.0,5.0,81,0.00,,,0.00,Wunderground v.1.15,2013-03-07 00:49:00,
2013-03-06 19:51:00,35.0,29.8,30.22,West,276,3.0,5.0,81,0.00,,,0.00,Wunderground v.1.15,2013-03-07 00:51:00,
2013-03-06 19:53:00,34.9,29.7,30.22,WNW,289,3.0,5.0,81,0.00,,,0.00,Wunderground v.1.15,2013-03-07 00:53:00,
2013-03-06 19:54:00,34.9,29.7,30.22,NW,316,3.0,5.0,81,0.00,,,0.00,Wunderground v.1.15,2013-03-07 00:54:00,
2013-03-06 19:57:00,34.9,29.7,30.22,NW,318,3.0,5.0,81,0.00,,,0.00,Wunderground v.1.15,2013-03-07 00:57:00,
2013-03-06 19:59:00,34.9,29.7,30.22,WNW,288,3.0,5.0,81,0.00,,,0.00,Wunderground v.1.15,2013-03-07 00:59:00,
2013-03-06 20:00:00,34.9,29.7,30.22,West,270,2.0,4.0,81,0.00,,,0.00,Wunderground v.1.15,2013-03-07 01:00:00,
2013-03-06 20:01:00,34.9,29.7,30.22,NW,306,2.0,4.0,81,0.00,,,0.00,Wunderground v.1.15,2013-03-07 01:01:00,
2013-03-06 20:03:00,34.8,29.6,30.22,NW,309,2.0,4.0,81,0.00,,,0.00,Wunderground v.1.15,2013-03-07 01:03:00,
2013-03-06 20:06:00,34.8,29.9,30.22,NW,309,2.0,4.0,82,0.00,,,0.00,Wunderground v.1.15,2013-03-07 01:06:00,
2013-03-06 20:09:00,34.8,29.9,30.22,NW,305,2.0,4.0,82,0.00,,,0.00,Wunderground v.1.15,2013-03-07 01:09:00,
2013-03-06 20:10:00,34.7,29.8,30.22,WNW,299,2.0,2.0,82,0.00,,,0.00,Wunderground v.1.15,2013-03-07 01:10:00,
2013-03-06 20:12:00,34.7,29.8,30.21,NW,312,2.0,2.0,82,0.00,,,0.00,Wunderground v.1.15,2013-03-07 01:12:00,
2013-03-06 20:14:00,34.7,29.8,30.21,WSW,257,2.0,2.0,82,0.00,,,0.00,Wunderground v.1.15,2013-03-07 01:14:00,
2013-03-06 20:15:00,34.7,29.8,30.21,North,350,1.0,2.0,82,0.00,,,0.00,Wunderground v.1.15,2013-03-07 01:15:00,
2013-03-06 20:16:00,34.6,29.7,30.21,NNW,341,1.0,2.0,82,0.00,,,0.00,Wunderground v.1.15,2013-03-07 01:16:00,
2013-03-06 20:18:00,34.6,29.7,30.21,NNW,333,1.0,2.0,82,0.00,,,0.00,Wunderground v.1.15,2013-03-07 01:18:00,
2013-03-06 20:19:00,34.6,29.7,30.21,NNW,332,1.0,2.0,82,0.00,,,0.00,Wunderground v.1.15,2013-03-07 01:19:00,
2013-03-06 20:23:00,34.5,29.6,30.21,West,275,1.0,1.0,82,0.00,,,0.00,Wunderground v.1.15,2013-03-07 01:23:00,
2013-03-06 20:24:00,34.5,29.6,30.21,West,274,1.0,1.0,82,0.00,,,0.00,Wunderground v.1.15,2013-03-07 01:24:00,
2013-03-06 20:26:00,34.4,29.5,30.21,NNW,330,1.0,3.0,82,0.00,,,0.00,Wunderground v.1.15,2013-03-07 01:26:00,
2013-03-06 20:27:00,34.4,29.8,30.21,NW,315,1.0,3.0,83,0.00,,,0.00,Wunderground v.1.15,2013-03-07 01:27:00,
2013-03-06 20:29:00,34.4,29.8,30.21,NNW,330,1.0,3.0,83,0.00,,,0.00,Wunderground v.1.15,2013-03-07 01:29:00,
2013-03-06 20:31:00,34.4,29.8,30.21,NW,319,1.0,1.0,83,0.00,,,0.00,Wunderground v.1.15,2013-03-07 01:31:00,
2013-03-06 20:32:00,34.3,29.7,30.21,WNW,296,1.0,1.0,83,0.00,,,0.00,Wunderground v.1.15,2013-03-07 01:32:00,
2013-03-06 20:35:00,34.3,29.7,30.22,WNW,299,2.0,2.0,83,0.00,,,0.00,Wunderground v.1.15,2013-03-07 01:35:00,
2013-03-06 20:39:00,34.2,29.9,30.22,West,274,2.0,2.0,84,0.00,,,0.00,Wunderground v.1.15,2013-03-07 01:39:00,
2013-03-06 20:40:00,34.2,29.9,30.22,West,274,2.0,2.0,84,0.00,,,0.00,Wunderground v.1.15,2013-03-07 01:40:00,
2013-03-06 20:45:00,34.1,29.8,30.21,NNW,343,1.0,2.0,84,0.00,,,0.00,Wunderground v.1.15,2013-03-07 01:45:00,
2013-03-06 20:46:00,34.1,29.8,30.21,NNW,348,0.0,2.0,84,0.00,,,0.00,Wunderground v.1.15,2013-03-07 01:46:00,
2013-03-06 20:47:00,34.1,29.8,30.21,NNW,348,0.0,2.0,84,0.00,,,0.00,Wunderground v.1.15,2013-03-07 01:47:00,
2013-03-06 20:48:00,34.1,29.8,30.22,NNW,346,0.0,2.0,84,0.00,,,0.00,Wunderground v.1.15,2013-03-07 01:48:00,
2013-03-06 20:52:00,34.0,29.7,30.22,NNW,330,0.0,1.0,84,0.00,,,0.00,Wunderground v.1.15,2013-03-07 01:52:00,
2013-03-06 20:53:00,34.0,30.0,30.22,West,274,0.0,1.0,85,0.00,,,0.00,Wunderground v.1.15,2013-03-07 01:53:00,
2013-03-06 20:54:00,34.0,30.0,30.22,WNW,303,0.0,1.0,85,0.00,,,0.00,Wunderground v.1.15,2013-03-07 01:54:00,
2013-03-06 20:58:00,34.0,30.0,30.22,WNW,303,0.0,1.0,85,0.00,,,0.00,Wunderground v.1.15,2013-03-07 01:58:00,
2013-03-06 21:00:00,33.9,29.9,30.22,NW,321,0.0,1.0,85,0.00,,,0.00,Wunderground v.1.15,2013-03-07 02:00:00,
2013-03-06 21:02:00,33.9,29.9,30.22,NW,310,0.0,1.0,85,0.00,,,0.00,Wunderground v.1.15,2013-03-07 02:02:00,
2013-03-06 21:05:00,34.0,30.0,30.22,NW,314,1.0,2.0,85,0.00,,,0.00,Wunderground v.1.15,2013-03-07 02:05:00,
2013-03-06 21:06:00,34.0,30.0,30.23,NW,313,1.0,2.0,85,0.00,,,0.00,Wunderground v.1.15,2013-03-07 02:06:00,
2013-03-06 21:07:00,33.9,29.9,30.22,NW,313,1.0,2.0,85,0.00,,,0.00,Wunderground v.1.15,2013-03-07 02:07:00,
2013-03-06 21:10:00,34.0,30.0,30.23,NNW,330,1.0,1.0,85,0.00,,,0.00,Wunderground v.1.15,2013-03-07 02:10:00,
2013-03-06 21:13:00,34.0,30.0,30.23,NW,310,1.0,1.0,85,0.00,,,0.00,Wunderground v.1.15,2013-03-07 02:13:00,
2013-03-06 21:16:00,34.0,30.0,30.23,NW,314,0.0,2.0,85,0.00,,,0.00,Wunderground v.1.15,2013-03-07 02:16:00,
2013-03-06 21:17:00,34.0,30.0,30.23,NW,319,1.0,2.0,85,0.00,,,0.00,Wunderground v.1.15,2013-03-07 02:17:00,
2013-03-06 21:18:00,34.0,30.0,30.23,NW,326,1.0,3.0,85,0.00,,,0.00,Wunderground v.1.15,2013-03-07 02:18:00,
2013-03-06 21:19:00,34.0,30.0,30.22,NW,319,1.0,3.0,85,0.00,,,0.00,Wunderground v.1.15,2013-03-07 02:19:00,
2013-03-06 21:22:00,34.1,30.1,30.23,NW,320,1.0,1.0,85,0.00,,,0.00,Wunderground v.1.15,2013-03-07 02:22:00,
2013-03-06 21:23:00,34.1,30.1,30.23,NW,317,1.0,2.0,85,0.00,,,0.00,Wunderground v.1.15,2013-03-07 02:23:00,
2013-03-06 21:27:00,34.1,30.1,30.23,NW,309,1.0,2.0,85,0.00,,,0.00,Wunderground v.1.15,2013-03-07 02:27:00,
2013-03-06 21:28:00,34.1,30.1,30.23,NW,310,1.0,2.0,85,0.00,,,0.00,Wunderground v.1.15,2013-03-07 02:28:00,
2013-03-06 21:32:00,34.1,30.1,30.23,NW,310,1.0,1.0,85,0.00,,,0.00,Wunderground v.1.15,2013-03-07 02:32:00,
2013-03-06 21:33:00,34.1,30.1,30.23,NW,310,1.0,1.0,85,0.00,,,0.00,Wunderground v.1.15,2013-03-07 02:33:00,
2013-03-06 21:36:00,34.1,30.1,30.23,NW,319,0.0,1.0,85,0.00,,,0.00,Wunderground v.1.15,2013-03-07 02:36:00,
2013-03-06 21:38:00,34.1,30.1,30.23,NW,318,0.0,1.0,85,0.00,,,0.00,Wunderground v.1.15,2013-03-07 02:38:00,
2013-03-06 21:39:00,34.1,30.4,30.23,NNW,339,0.0,0.0,86,0.00,,,0.00,Wunderground v.1.15,2013-03-07 02:39:00,
2013-03-06 21:41:00,34.1,30.4,30.23,NNW,338,0.0,0.0,86,0.00,,,0.00,Wunderground v.1.15,2013-03-07 02:41:00,
2013-03-06 21:43:00,34.1,30.4,30.23,NNW,336,0.0,0.0,86,0.00,,,0.00,Wunderground v.1.15,2013-03-07 02:43:00,
2013-03-06 21:47:00,34.1,30.4,30.23,NW,313,0.0,1.0,86,0.00,,,0.00,Wunderground v.1.15,2013-03-07 02:47:00,
2013-03-06 21:50:00,34.1,30.4,30.22,NW,313,0.0,0.0,86,0.00,,,0.00,Wunderground v.1.15,2013-03-07 02:50:00,
2013-03-06 21:51:00,34.1,30.4,30.22,NW,315,0.0,0.0,86,0.00,,,0.00,Wunderground v.1.15,2013-03-07 02:51:00,
2013-03-06 21:52:00,34.1,30.4,30.22,North,8,0.0,0.0,86,0.00,,,0.00,Wunderground v.1.15,2013-03-07 02:52:00,
2013-03-06 21:56:00,34.0,30.3,30.22,North,358,0.0,1.0,86,0.00,,,0.00,Wunderground v.1.15,2013-03-07 02:56:00,
2013-03-06 21:59:00,34.0,30.3,30.23,North,357,0.0,1.0,86,0.00,,,0.00,Wunderground v.1.15,2013-03-07 02:59:00,
2013-03-06 22:00:00,34.0,30.3,30.23,North,358,0.0,0.0,86,0.00,,,0.00,Wunderground v.1.15,2013-03-07 03:00:00,
2013-03-06 22:06:00,34.0,30.3,30.23,NW,318,0.0,1.0,86,0.00,,,0.00,Wunderground v.1.15,2013-03-07 03:06:00,
2013-03-06 22:07:00,33.9,30.2,30.23,NW,321,0.0,1.0,86,0.00,,,0.00,Wunderground v.1.15,2013-03-07 03:07:00,
2013-03-06 22:09:00,33.9,30.2,30.23,NW,319,0.0,1.0,86,0.00,,,0.00,Wunderground v.1.15,2013-03-07 03:09:00,
2013-03-06 22:10:00,33.9,30.2,30.23,NW,320,0.0,0.0,86,0.00,,,0.00,Wunderground v.1.15,2013-03-07 03:10:00,
2013-03-06 22:11:00,33.9,30.2,30.23,NW,319,0.0,0.0,86,0.00,,,0.00,Wunderground v.1.15,2013-03-07 03:11:00,
2013-03-06 22:12:00,33.9,30.2,30.23,NW,318,0.0,0.0,86,0.00,,,0.00,Wunderground v.1.15,2013-03-07 03:12:00,
2013-03-06 22:15:00,33.9,30.2,30.23,NW,319,0.0,0.0,86,0.00,,,0.00,Wunderground v.1.15,2013-03-07 03:15:00,
2013-03-06 22:16:00,33.9,30.2,30.23,NW,320,0.0,0.0,86,0.00,,,0.00,Wunderground v.1.15,2013-03-07 03:16:00,
2013-03-06 22:17:00,33.9,30.2,30.23,NW,319,0.0,0.0,86,0.00,,,0.00,Wunderground v.1.15,2013-03-07 03:17:00,
2013-03-06 22:19:00,33.9,30.2,30.23,NW,320,0.0,0.0,86,0.00,,,0.00,Wunderground v.1.15,2013-03-07 03:19:00,
2013-03-06 22:21:00,33.9,30.2,30.23,NW,320,0.0,0.0,86,0.00,,,0.00,Wunderground v.1.15,2013-03-07 03:21:00,
2013-03-06 22:24:00,33.9,30.2,30.23,NW,318,0.0,0.0,86,0.00,,,0.00,Wunderground v.1.15,2013-03-07 03:24:00,
2013-03-06 22:25:00,33.9,30.2,30.23,NW,319,0.0,0.0,86,0.00,,,0.00,Wunderground v.1.15,2013-03-07 03:25:00,
2013-03-06 22:27:00,33.9,30.2,30.23,NW,319,0.0,0.0,86,0.00,,,0.00,Wunderground v.1.15,2013-03-07 03:27:00,
2013-03-06 22:29:00,33.9,30.4,30.23,NW,318,0.0,0.0,87,0.00,,,0.00,Wunderground v.1.15,2013-03-07 03:29:00,
2013-03-06 22:31:00,33.9,30.4,30.23,NW,319,0.0,0.0,87,0.00,,,0.00,Wunderground v.1.15,2013-03-07 03:31:00,
2013-03-06 22:32:00,33.9,30.4,30.23,NW,319,0.0,0.0,87,0.00,,,0.00,Wunderground v.1.15,2013-03-07 03:32:00,
2013-03-06 22:34:00,33.8,30.3,30.22,NW,319,0.0,0.0,87,0.00,,,0.00,Wunderground v.1.15,2013-03-07 03:34:00,
2013-03-06 22:35:00,33.9,30.4,30.23,NW,320,0.0,0.0,87,0.00,,,0.00,Wunderground v.1.15,2013-03-07 03:35:00,
2013-03-06 22:36:00,33.8,30.3,30.23,NW,319,0.0,0.0,87,0.00,,,0.00,Wunderground v.1.15,2013-03-07 03:36:00,
2013-03-06 22:38:00,33.8,30.3,30.23,NW,320,0.0,0.0,87,0.00,,,0.00,Wunderground v.1.15,2013-03-07 03:38:00,
2013-03-06 22:39:00,33.8,30.3,30.23,NW,318,0.0,0.0,87,0.00,,,0.00,Wunderground v.1.15,2013-03-07 03:39:00,
2013-03-06 22:41:00,33.8,30.3,30.23,NW,319,0.0,0.0,87,0.00,,,0.00,Wunderground v.1.15,2013-03-07 03:41:00,
2013-03-06 22:42:00,33.8,30.3,30.23,NW,318,0.0,0.0,87,0.00,,,0.00,Wunderground v.1.15,2013-03-07 03:42:00,
2013-03-06 22:43:00,33.8,30.3,30.23,NW,318,0.0,0.0,87,0.00,,,0.00,Wunderground v.1.15,2013-03-07 03:43:00,
2013-03-06 22:44:00,33.8,30.3,30.23,NW,318,0.0,0.0,87,0.00,,,0.00,Wunderground v.1.15,2013-03-07 03:44:00,
2013-03-06 22:46:00,33.8,30.3,30.23,NW,320,0.0,0.0,87,0.00,,,0.00,Wunderground v.1.15,2013-03-07 03:46:00,
2013-03-06 22:47:00,33.8,30.3,30.23,NW,318,0.0,0.0,87,0.00,,,0.00,Wunderground v.1.15,2013-03-07 03:47:00,
2013-03-06 22:48:00,33.8,30.3,30.23,NW,319,0.0,0.0,87,0.00,,,0.00,Wunderground v.1.15,2013-03-07 03:48:00,
2013-03-06 22:49:00,33.8,30.3,30.23,NW,320,0.0,0.0,87,0.00,,,0.00,Wunderground v.1.15,2013-03-07 03:49:00,
2013-03-06 22:53:00,33.8,30.3,30.23,NW,318,0.0,0.0,87,0.00,,,0.00,Wunderground v.1.15,2013-03-07 03:53:00,
2013-03-06 22:54:00,33.8,30.3,30.23,NW,319,0.0,1.0,87,0.00,,,0.00,Wunderground v.1.15,2013-03-07 03:54:00,
2013-03-06 22:58:00,33.8,30.3,30.23,NW,320,0.0,1.0,87,0.00,,,0.00,Wunderground v.1.15,2013-03-07 03:58:00,
2013-03-06 22:59:00,33.8,30.3,30.23,NW,319,0.0,1.0,87,0.00,,,0.00,Wunderground v.1.15,2013-03-07 03:59:00,
2013-03-06 23:00:00,33.8,30.3,30.23,NW,318,0.0,0.0,87,0.00,,,0.00,Wunderground v.1.15,2013-03-07 04:00:00,
2013-03-06 23:03:00,33.8,30.3,30.23,NW,319,0.0,1.0,87,0.00,,,0.00,Wunderground v.1.15,2013-03-07 04:03:00,
2013-03-06 23:04:00,33.7,30.2,30.23,NW,319,0.0,1.0,87,0.00,,,0.00,Wunderground v.1.15,2013-03-07 04:04:00,
2013-03-06 23:05:00,33.7,30.2,30.24,NW,320,0.0,1.0,87,0.00,,,0.00,Wunderground v.1.15,2013-03-07 04:05:00,
2013-03-06 23:09:00,33.7,30.2,30.23,NW,319,0.0,1.0,87,0.00,,,0.00,Wunderground v.1.15,2013-03-07 04:09:00,
2013-03-06 23:10:00,33.7,30.2,30.23,NW,319,0.0,1.0,87,0.00,,,0.00,Wunderground v.1.15,2013-03-07 04:10:00,
2013-03-06 23:12:00,33.7,30.2,30.23,NW,318,0.0,1.0,87,0.00,,,0.00,Wunderground v.1.15,2013-03-07 04:12:00,
2013-03-06 23:15:00,33.7,30.2,30.23,NW,318,0.0,1.0,87,0.00,,,0.00,Wunderground v.1.15,2013-03-07 04:15:00,
2013-03-06 23:16:00,33.7,30.2,30.23,NW,318,0.0,1.0,87,0.00,,,0.00,Wunderground v.1.15,2013-03-07 04:16:00,
2013-03-06 23:17:00,33.7,30.2,30.23,NW,318,0.0,1.0,87,0.00,,,0.00,Wunderground v.1.15,2013-03-07 04:17:00,
2013-03-06 23:21:00,33.7,30.2,30.23,NW,318,0.0,0.0,87,0.00,,,0.00,Wunderground v.1.15,2013-03-07 04:21:00,
2013-03-06 23:22:00,33.7,30.2,30.23,NW,318,0.0,1.0,87,0.00,,,0.00,Wunderground v.1.15,2013-03-07 04:22:00,
2013-03-06 23:23:00,33.7,30.2,30.23,NW,318,0.0,1.0,87,0.00,,,0.00,Wunderground v.1.15,2013-03-07 04:23:00,
2013-03-06 23:28:00,33.6,30.1,30.23,WNW,288,1.0,1.0,87,0.00,,,0.00,Wunderground v.1.15,2013-03-07 04:28:00,
2013-03-06 23:31:00,33.6,30.1,30.24,WNW,289,1.0,1.0,87,0.00,,,0.00,Wunderground v.1.15,2013-03-07 04:31:00,
2013-03-06 23:35:00,33.6,30.1,30.23,WNW,289,1.0,1.0,87,0.00,,,0.00,Wunderground v.1.15,2013-03-07 04:35:00,
2013-03-06 23:37:00,33.6,30.1,30.23,WNW,288,1.0,1.0,87,0.00,,,0.00,Wunderground v.1.15,2013-03-07 04:37:00,
2013-03-06 23:38:00,33.6,30.1,30.23,WNW,289,0.0,1.0,87,0.00,,,0.00,Wunderground v.1.15,2013-03-07 04:38:00,
2013-03-06 23:39:00,33.6,30.1,30.23,WNW,289,0.0,1.0,87,0.00,,,0.00,Wunderground v.1.15,2013-03-07 04:39:00,
2013-03-06 23:42:00,33.6,30.1,30.23,WNW,288,0.0,0.0,87,0.00,,,0.00,Wunderground v.1.15,2013-03-07 04:42:00,
2013-03-06 23:43:00,33.6,30.1,30.23,WNW,288,0.0,0.0,87,0.00,,,0.00,Wunderground v.1.15,2013-03-07 04:43:00,
2013-03-06 23:44:00,33.6,30.1,30.23,WNW,289,0.0,0.0,87,0.00,,,0.00,Wunderground v.1.15,2013-03-07 04:44:00,
2013-03-06 23:45:00,33.6,30.1,30.23,WNW,289,0.0,1.0,87,0.00,,,0.00,Wunderground v.1.15,2013-03-07 04:45:00,
2013-03-06 23:48:00,33.6,30.1,30.23,WNW,289,0.0,1.0,87,0.00,,,0.00,Wunderground v.1.15,2013-03-07 04:48:00,
2013-03-06 23:49:00,33.6,30.1,30.23,WNW,288,0.0,1.0,87,0.00,,,0.00,Wunderground v.1.15,2013-03-07 04:49:00,
2013-03-06 23:51:00,33.6,30.1,30.23,WNW,288,0.0,0.0,87,0.00,,,0.00,Wunderground v.1.15,2013-03-07 04:51:00,
2013-03-06 23:53:00,33.5,30.0,30.23,WNW,289,0.0,0.0,87,0.00,,,0.00,Wunderground v.1.15,2013-03-07 04:53:00,
2013-03-06 23:54:00,33.5,30.0,30.23,WNW,289,0.0,0.0,87,0.00,,,0.00,Wunderground v.1.15,2013-03-07 04:54:00,
2013-03-06 23:57:00,33.6,30.4,30.23,WNW,289,0.0,0.0,88,0.00,,,0.00,Wunderground v.1.15,2013-03-07 04:57:00,